Time;durP1;ratioP1;P1;durP2;ratioP2;P2;SDS_P1;SDS_P2;PMS_P1;PMS_P2;Temp;Humidity;BMP_temperature;BMP_pressure;BME280_temperature;BME280_humidity;BME280_pressure;Samples;Min_cycle;Max_cycle;Signal;HPM_P1;HPM_P2
2023/09/14 00:01:42;;;;;;;2.08;1.00;;;22.20;92.00;;;;;;5074064;28;20365;-77
2023/09/14 00:04:07;;;;;;;1.88;1.08;;;22.20;92.00;;;;;;5055879;28;20024;-77
2023/09/14 00:06:33;;;;;;;2.90;1.27;;;22.20;92.00;;;;;;5073561;28;20024;-78
2023/09/14 00:08:58;;;;;;;1.83;0.98;;;22.20;92.00;;;;;;5055503;28;20028;-77
2023/09/14 00:11:24;;;;;;;2.40;1.30;;;22.20;92.00;;;;;;5073521;28;20028;-77
2023/09/14 00:13:50;;;;;;;2.13;1.20;;;22.20;92.10;;;;;;5055677;28;20054;-77
2023/09/14 00:16:15;;;;;;;2.65;1.10;;;22.20;92.10;;;;;;5055872;28;20025;-77
2023/09/14 00:18:41;;;;;;;2.22;1.10;;;22.20;92.10;;;;;;5055664;28;20017;-77
2023/09/14 00:21:06;;;;;;;1.90;1.15;;;22.10;92.10;;;;;;5056040;28;20115;-77
2023/09/14 00:23:32;;;;;;;4.35;1.10;;;22.10;92.10;;;;;;5055856;28;20021;-77
2023/09/14 00:25:57;;;;;;;1.33;0.90;;;22.10;92.10;;;;;;5072545;28;20149;-77
2023/09/14 00:28:23;;;;;;;2.53;1.08;;;22.10;92.10;;;;;;5073345;28;20070;-78
2023/09/14 00:30:55;;;;;;;2.17;1.08;;;22.10;92.10;;;;;;5055458;28;20134;-77
2023/09/14 00:33:24;;;;;;;1.27;0.85;;;22.10;92.10;;;;;;5073376;28;20024;-76
2023/09/14 00:35:49;;;;;;;1.73;1.10;;;22.10;92.10;;;;;;5055172;28;20454;-77
2023/09/14 00:38:15;;;;;;;2.03;1.02;;;22.10;92.10;;;;;;5054901;28;20020;-76
2023/09/14 00:40:41;;;;;;;3.05;1.45;;;22.10;92.10;;;;;;5072979;28;20016;-76
2023/09/14 00:43:07;;;;;;;2.53;1.20;;;22.10;92.10;;;;;;5055290;28;20397;-76
2023/09/14 00:45:32;;;;;;;1.98;1.05;;;22.10;92.10;;;;;;5072940;28;20039;-77
2023/09/14 00:48:02;;;;;;;2.03;0.90;;;22.20;92.10;;;;;;5054859;28;20044;-76
2023/09/14 00:50:29;;;;;;;1.75;1.02;;;22.10;92.00;;;;;;5055224;28;20029;-76
2023/09/14 00:53:10;;;;;;;2.10;1.13;;;22.20;92.00;;;;;;5054948;28;20029;-76
2023/09/14 00:55:37;;;;;;;2.08;1.13;;;22.20;92.00;;;;;;5054924;28;20025;-77
2023/09/14 00:58:03;;;;;;;1.70;1.00;;;22.20;92.00;;;;;;5054296;28;20028;-76
2023/09/14 01:00:29;;;;;;;2.58;1.20;;;22.20;92.00;;;;;;5054865;28;20070;-78
2023/09/14 01:02:56;;;;;;;2.08;1.00;;;22.20;92.10;;;;;;5054818;28;20052;-76
2023/09/14 01:05:23;;;;;;;2.88;1.10;;;22.10;92.10;;;;;;5054888;28;20024;-76
2023/09/14 01:07:49;;;;;;;2.08;1.00;;;22.10;92.10;;;;;;5072658;28;20033;-77
2023/09/14 01:10:15;;;;;;;2.88;1.00;;;22.10;92.10;;;;;;5054952;28;20024;-77
2023/09/14 01:12:43;;;;;;;1.75;1.08;;;22.10;92.10;;;;;;5054988;28;20029;-78
2023/09/14 01:15:48;;;;;;;2.97;1.38;;;22.10;92.10;;;;;;5054782;28;20036;-77
2023/09/14 01:18:29;;;;;;;1.88;1.00;;;22.10;92.10;;;;;;5070570;28;20036;-78
2023/09/14 01:21:03;;;;;;;2.22;1.00;;;22.10;92.10;;;;;;5070103;28;20027;-78
2023/09/14 01:23:32;;;;;;;2.10;1.23;;;22.10;92.10;;;;;;5072753;28;20511;-77
2023/09/14 01:25:59;;;;;;;2.38;1.10;;;22.10;92.10;;;;;;5054688;28;20027;-78
2023/09/14 01:28:24;;;;;;;1.98;1.00;;;22.00;92.10;;;;;;5072255;28;20050;-79
2023/09/14 01:30:50;;;;;;;3.08;1.17;;;22.10;92.10;;;;;;5054610;28;20547;-76
2023/09/14 01:33:16;;;;;;;1.80;1.08;;;22.00;92.10;;;;;;5072368;28;20032;-77
2023/09/14 01:35:45;;;;;;;2.25;1.10;;;22.10;92.10;;;;;;5054670;28;20024;-76
2023/09/14 01:38:13;;;;;;;1.95;0.90;;;22.10;92.10;;;;;;5074847;28;20024;-78
2023/09/14 01:40:39;;;;;;;1.73;1.00;;;22.10;92.10;;;;;;5058905;28;20024;-77
2023/09/14 01:43:06;;;;;;;1.90;1.00;;;22.10;92.10;;;;;;5058610;28;20025;-76
2023/09/14 01:45:33;;;;;;;2.90;1.00;;;22.10;92.00;;;;;;5076525;28;20025;-77
2023/09/14 01:47:59;;;;;;;2.25;1.10;;;22.10;92.00;;;;;;5058089;28;20396;-77
2023/09/14 01:50:25;;;;;;;1.52;1.10;;;22.10;92.00;;;;;;5076308;28;20032;-78
2023/09/14 01:52:52;;;;;;;2.90;1.13;;;22.10;92.00;;;;;;5058350;28;20032;-78
2023/09/14 01:55:18;;;;;;;2.83;1.00;;;22.10;92.10;;;;;;5058046;28;20028;-78
2023/09/14 01:57:44;;;;;;;4.10;1.10;;;22.10;92.10;;;;;;5075838;28;20029;-77
2023/09/14 02:00:10;;;;;;;1.33;1.00;;;22.10;92.00;;;;;;5058425;28;20016;-78
2023/09/14 02:02:36;;;;;;;2.97;1.20;;;22.10;92.10;;;;;;5058202;28;20142;-78
2023/09/14 02:05:02;;;;;;;2.55;1.10;;;22.10;92.10;;;;;;5076115;28;20054;-77
2023/09/14 02:07:27;;;;;;;1.58;0.90;;;22.00;92.10;;;;;;5057859;28;20489;-76
2023/09/14 02:09:52;;;;;;;2.08;1.10;;;22.00;92.10;;;;;;5076162;28;20084;-76
2023/09/14 02:12:18;;;;;;;2.03;1.10;;;22.00;92.10;;;;;;5058008;28;20435;-76
2023/09/14 02:14:44;;;;;;;1.65;1.00;;;22.00;92.10;;;;;;5057789;28;20162;-76
2023/09/14 02:17:09;;;;;;;2.38;1.13;;;22.00;92.10;;;;;;5058277;28;20028;-77
2023/09/14 02:19:35;;;;;;;2.05;1.00;;;22.00;92.10;;;;;;5075999;28;20020;-76
2023/09/14 02:22:00;;;;;;;1.60;1.00;;;22.00;92.10;;;;;;5057939;28;20027;-77
2023/09/14 02:24:26;;;;;;;1.63;0.90;;;22.00;92.10;;;;;;5057783;28;20025;-77
2023/09/14 02:26:54;;;;;;;2.47;1.13;;;22.00;92.10;;;;;;5075458;28;20370;-77
2023/09/14 02:29:20;;;;;;;2.33;1.10;;;22.00;92.10;;;;;;5057542;28;20077;-78
2023/09/14 02:31:45;;;;;;;2.58;1.35;;;22.10;92.10;;;;;;5057675;28;20127;-76
2023/09/14 02:34:11;;;;;;;2.17;1.00;;;22.10;92.10;;;;;;5075402;28;20184;-76
2023/09/14 02:36:36;;;;;;;1.95;0.93;;;22.10;92.00;;;;;;5057400;28;20112;-77
2023/09/14 02:39:02;;;;;;;2.15;1.27;;;22.10;92.00;;;;;;5057071;28;20022;-77
2023/09/14 02:41:27;;;;;;;1.85;0.95;;;22.10;92.00;;;;;;5075455;28;20520;-77
2023/09/14 02:43:53;;;;;;;1.90;1.00;;;22.10;92.00;;;;;;5057171;28;20107;-77
2023/09/14 02:46:18;;;;;;;2.95;1.30;;;22.10;92.00;;;;;;5075474;28;20044;-78
2023/09/14 02:48:44;;;;;;;2.30;1.10;;;22.10;92.00;;;;;;5056032;28;20030;-77
2023/09/14 02:51:09;;;;;;;2.00;0.90;;;22.10;92.00;;;;;;5057380;28;20071;-78
2023/09/14 02:53:34;;;;;;;2.25;1.00;;;22.00;92.00;;;;;;5057362;28;20515;-76
2023/09/14 02:56:00;;;;;;;3.22;1.20;;;22.00;92.00;;;;;;5057547;28;20124;-76
2023/09/14 02:58:26;;;;;;;2.50;1.23;;;22.00;92.10;;;;;;5056591;28;20385;-76
2023/09/14 03:00:51;;;;;;;1.35;0.90;;;22.00;92.10;;;;;;5074000;28;20095;-77
2023/09/14 03:03:17;;;;;;;1.85;0.90;;;22.00;92.10;;;;;;5057018;28;20020;-78
2023/09/14 03:05:42;;;;;;;2.00;1.00;;;22.00;92.10;;;;;;5057172;28;20519;-78
2023/09/14 03:08:08;;;;;;;1.88;0.93;;;22.00;92.10;;;;;;5056849;28;20032;-77
2023/09/14 03:10:33;;;;;;;1.55;0.90;;;22.10;92.10;;;;;;5057028;28;20025;-78
2023/09/14 03:12:59;;;;;;;2.00;1.00;;;22.00;92.10;;;;;;5074843;28;20455;-78
2023/09/14 03:15:24;;;;;;;1.92;1.10;;;22.00;92.10;;;;;;5074836;28;20043;-77
2023/09/14 03:17:50;;;;;;;2.67;1.02;;;22.00;92.10;;;;;;5056174;28;20032;-78
2023/09/14 03:20:16;;;;;;;1.83;1.00;;;22.00;92.10;;;;;;5066071;28;20040;-77
2023/09/14 03:22:41;;;;;;;2.63;1.00;;;22.00;92.10;;;;;;5091708;28;20113;-77
2023/09/14 03:25:07;;;;;;;2.13;1.17;;;22.00;92.00;;;;;;5077029;28;20480;-78
2023/09/14 03:27:32;;;;;;;2.58;1.08;;;22.00;92.00;;;;;;5094739;28;20024;-78
2023/09/14 03:29:58;;;;;;;1.33;0.90;;;22.00;92.00;;;;;;5094928;28;20111;-77
2023/09/14 03:32:24;;;;;;;2.13;1.23;;;22.00;92.00;;;;;;5076626;28;20064;-78
2023/09/14 03:34:49;;;;;;;1.17;0.80;;;22.10;92.00;;;;;;5094611;28;20032;-78
2023/09/14 03:37:15;;;;;;;2.38;1.17;;;22.00;91.90;;;;;;5094568;28;20028;-77
2023/09/14 03:39:45;;;;;;;2.33;1.00;;;22.00;92.00;;;;;;5094661;28;20027;-77
2023/09/14 03:42:11;;;;;;;1.60;1.00;;;22.00;92.00;;;;;;5094727;28;20038;-78
2023/09/14 03:44:37;;;;;;;3.05;1.10;;;22.00;92.00;;;;;;5075959;28;20480;-77
2023/09/14 03:47:03;;;;;;;1.58;1.00;;;22.00;92.00;;;;;;5094681;28;20461;-77
2023/09/14 03:49:28;;;;;;;1.92;1.00;;;22.00;92.00;;;;;;5094452;28;20043;-78
2023/09/14 03:51:53;;;;;;;1.42;0.88;;;22.00;92.00;;;;;;5076293;28;20141;-79
2023/09/14 03:54:19;;;;;;;2.72;1.13;;;22.00;92.10;;;;;;5076421;28;20031;-78
2023/09/14 03:56:44;;;;;;;2.05;0.93;;;22.00;92.10;;;;;;5076041;28;20491;-78
2023/09/14 03:59:10;;;;;;;2.65;1.00;;;21.90;92.00;;;;;;5075655;28;20077;-78
2023/09/14 04:01:36;;;;;;;2.45;0.98;;;22.00;92.10;;;;;;5075682;28;20034;-77
2023/09/14 04:04:02;;;;;;;2.90;1.10;;;21.90;92.10;;;;;;5076108;28;20016;-78
2023/09/14 04:06:28;;;;;;;2.53;1.10;;;21.90;92.10;;;;;;5094437;28;20048;-77
2023/09/14 04:08:53;;;;;;;1.70;0.90;;;21.90;92.10;;;;;;5093918;28;20062;-77
2023/09/14 04:11:19;;;;;;;1.52;0.90;;;21.90;92.10;;;;;;5075936;28;20110;-78
2023/09/14 04:13:44;;;;;;;1.92;1.00;;;21.90;92.10;;;;;;5076702;28;20034;-77
2023/09/14 04:16:11;;;;;;;2.05;0.90;;;21.90;92.00;;;;;;5075877;28;20033;-78
2023/09/14 04:18:38;;;;;;;1.73;0.90;;;21.90;92.20;;;;;;5075515;28;20085;-78
2023/09/14 04:21:04;;;;;;;1.77;0.93;;;21.90;92.00;;;;;;5075868;28;20016;-78
2023/09/14 04:23:30;;;;;;;2.08;0.90;;;22.00;92.00;;;;;;5075296;28;20020;-77
2023/09/14 04:25:55;;;;;;;1.92;1.00;;;22.00;92.00;;;;;;5075786;28;20028;-77
2023/09/14 04:28:21;;;;;;;2.13;1.10;;;22.00;91.90;;;;;;5075392;28;20024;-77
2023/09/14 04:30:50;;;;;;;1.80;0.82;;;22.00;91.90;;;;;;5075586;28;20032;-77
2023/09/14 04:33:17;;;;;;;2.92;0.95;;;22.00;91.90;;;;;;5093374;28;20435;-77
2023/09/14 04:35:43;;;;;;;2.38;1.00;;;22.00;92.00;;;;;;5093471;28;20034;-78
2023/09/14 04:38:09;;;;;;;1.77;0.95;;;22.00;92.00;;;;;;5093276;28;20440;-77
2023/09/14 04:40:41;;;;;;;1.83;0.98;;;21.90;91.90;;;;;;5093289;28;20481;-78
2023/09/14 04:43:08;;;;;;;1.83;1.02;;;21.90;92.00;;;;;;5093844;28;20028;-77
2023/09/14 04:45:33;;;;;;;2.35;1.10;;;21.90;92.00;;;;;;5093180;28;20027;-78
2023/09/14 04:48:00;;;;;;;1.98;1.00;;;21.90;92.20;;;;;;5075032;28;20020;-78
2023/09/14 04:50:26;;;;;;;2.15;0.90;;;21.90;92.00;;;;;;5093297;28;20024;-77
2023/09/14 04:52:51;;;;;;;1.48;0.90;;;21.90;92.00;;;;;;5093388;28;20028;-78
2023/09/14 04:55:17;;;;;;;2.00;0.95;;;21.90;92.00;;;;;;5075192;28;20057;-77
2023/09/14 04:57:42;;;;;;;1.30;0.80;;;21.90;92.00;;;;;;5074399;28;20023;-77
2023/09/14 05:00:09;;;;;;;1.73;0.77;;;21.90;92.00;;;;;;5060866;28;20024;-77
2023/09/14 05:02:35;;;;;;;2.30;1.00;;;21.90;92.00;;;;;;5063288;28;20024;-76
2023/09/14 05:05:06;;;;;;;2.42;1.10;;;21.90;92.00;;;;;;5066367;28;20487;-78
2023/09/14 05:07:31;;;;;;;2.50;0.90;;;21.90;92.00;;;;;;5074637;28;20031;-77
2023/09/14 05:09:57;;;;;;;1.95;1.00;;;21.90;92.00;;;;;;5074966;28;20028;-77
2023/09/14 05:12:22;;;;;;;2.15;0.93;;;21.90;92.00;;;;;;5092061;28;20028;-77
2023/09/14 05:14:48;;;;;;;2.15;0.90;;;21.90;91.90;;;;;;5057347;28;20045;-77
2023/09/14 05:17:13;;;;;;;1.40;0.82;;;21.90;91.90;;;;;;5055042;28;20115;-76
2023/09/14 05:19:43;;;;;;;1.58;0.90;;;21.90;91.90;;;;;;5062900;28;20017;-76
2023/09/14 05:22:09;;;;;;;1.60;1.02;;;22.00;91.90;;;;;;5072851;28;20115;-76
2023/09/14 05:24:35;;;;;;;1.58;0.90;;;22.00;91.80;;;;;;5054476;28;20107;-77
2023/09/14 05:27:01;;;;;;;1.73;0.90;;;21.90;91.80;;;;;;5054808;28;20127;-76
2023/09/14 05:29:26;;;;;;;2.00;1.00;;;21.90;91.80;;;;;;5054298;28;20473;-77
2023/09/14 05:31:52;;;;;;;1.10;0.80;;;22.00;91.80;;;;;;5054448;28;20070;-77
2023/09/14 05:34:18;;;;;;;2.92;1.10;;;21.90;91.80;;;;;;5054684;28;20032;-77
2023/09/14 05:36:43;;;;;;;1.55;0.93;;;21.90;91.80;;;;;;5054484;28;20489;-77
2023/09/14 05:39:09;;;;;;;2.08;0.90;;;21.90;91.80;;;;;;5054251;28;20481;-77
2023/09/14 05:41:35;;;;;;;1.73;0.90;;;22.00;91.80;;;;;;5054416;28;20358;-77
2023/09/14 05:44:03;;;;;;;1.98;1.00;;;21.90;91.70;;;;;;5054436;28;20020;-77
2023/09/14 05:46:29;;;;;;;1.95;1.00;;;22.00;91.70;;;;;;5054703;28;20446;-76
2023/09/14 05:48:54;;;;;;;2.03;1.10;;;22.00;91.70;;;;;;5072184;28;20131;-77
2023/09/14 05:51:20;;;;;;;1.60;0.95;;;22.00;91.80;;;;;;5054323;28;20023;-78
2023/09/14 05:53:45;;;;;;;1.42;0.98;;;22.00;91.70;;;;;;5072141;28;20021;-78
2023/09/14 05:56:11;;;;;;;1.10;0.80;;;22.00;91.70;;;;;;5072355;28;20380;-76
2023/09/14 05:58:36;;;;;;;3.38;1.05;;;22.00;91.90;;;;;;5054294;28;20028;-79
2023/09/14 06:01:03;;;;;;;1.67;0.90;;;22.00;91.60;;;;;;5072403;28;20020;-78
2023/09/14 06:03:29;;;;;;;2.67;1.10;;;22.00;91.60;;;;;;5071868;28;20550;-76
2023/09/14 06:05:54;;;;;;;1.55;0.90;;;22.00;91.50;;;;;;5053982;28;20032;-77
2023/09/14 06:08:20;;;;;;;1.98;1.05;;;22.00;91.40;;;;;;5054086;28;20124;-77
2023/09/14 06:10:45;;;;;;;1.63;0.93;;;22.10;91.40;;;;;;5071637;28;20052;-76
2023/09/14 06:13:11;;;;;;;2.20;1.10;;;22.10;91.40;;;;;;5053877;28;20035;-77
2023/09/14 06:15:36;;;;;;;1.60;0.80;;;22.10;91.30;;;;;;5053911;28;20127;-77
2023/09/14 06:18:02;;;;;;;2.13;0.98;;;22.10;91.30;;;;;;5053698;28;20115;-76
2023/09/14 06:20:27;;;;;;;2.15;0.80;;;22.10;91.30;;;;;;5054027;28;20370;-78
2023/09/14 06:22:53;;;;;;;1.63;0.90;;;22.10;91.30;;;;;;5054101;28;20390;-77
2023/09/14 06:25:20;;;;;;;1.98;0.90;;;22.10;91.30;;;;;;5057698;28;20022;-76
2023/09/14 06:27:45;;;;;;;1.63;0.85;;;22.20;91.30;;;;;;5057583;28;20479;-78
2023/09/14 06:30:11;;;;;;;2.03;1.10;;;22.20;91.30;;;;;;5075519;28;20024;-76
2023/09/14 06:32:37;;;;;;;1.60;0.90;;;22.20;91.30;;;;;;5057603;28;20499;-77
2023/09/14 06:35:03;;;;;;;1.65;0.90;;;22.10;91.30;;;;;;5057690;28;20024;-77
2023/09/14 06:37:41;;;;;;;1.58;0.80;;;22.20;91.30;;;;;;5109763;27;20376;-77
2023/09/14 06:40:07;;;;;;;1.40;0.90;;;22.20;91.20;;;;;;5108969;28;20107;-77
2023/09/14 06:42:34;;;;;;;1.63;0.80;;;22.20;91.20;;;;;;5108528;28;20061;-79
2023/09/14 06:45:00;;;;;;;1.50;0.90;;;22.20;91.10;;;;;;5108777;28;20024;-79
2023/09/14 06:47:26;;;;;;;1.17;0.80;;;22.20;91.00;;;;;;5109892;28;20023;-77
2023/09/14 06:49:51;;;;;;;1.58;0.90;;;22.30;91.10;;;;;;5109019;28;20036;-77
2023/09/14 06:52:16;;;;;;;1.02;0.70;;;22.30;91.10;;;;;;5108750;28;20119;-77
2023/09/14 06:54:42;;;;;;;1.55;0.80;;;22.30;91.00;;;;;;5108548;28;20425;-77
2023/09/14 06:57:08;;;;;;;2.38;0.90;;;22.30;90.90;;;;;;5109365;28;20035;-76
2023/09/14 06:59:34;;;;;;;1.27;0.70;;;22.30;91.00;;;;;;5107914;28;20012;-77
2023/09/14 07:01:59;;;;;;;2.13;1.00;;;22.40;90.90;;;;;;5109792;28;20435;-77
2023/09/14 07:04:25;;;;;;;1.92;1.05;;;22.40;90.80;;;;;;5108170;28;20065;-77
2023/09/14 07:06:50;;;;;;;1.70;0.85;;;22.40;90.70;;;;;;5108193;28;20076;-76
2023/09/14 07:09:16;;;;;;;1.75;0.80;;;22.50;90.70;;;;;;5108231;28;20396;-77
2023/09/14 07:11:41;;;;;;;1.35;0.82;;;22.50;90.60;;;;;;5108095;28;20031;-77
2023/09/14 07:14:07;;;;;;;1.23;0.85;;;22.50;90.60;;;;;;5109520;28;20031;-77
2023/09/14 07:16:32;;;;;;;2.13;0.85;;;22.50;90.60;;;;;;5107994;28;20024;-77
2023/09/14 07:18:59;;;;;;;3.40;1.20;;;22.50;90.50;;;;;;5108093;28;20030;-77
2023/09/14 07:21:26;;;;;;;1.83;1.08;;;22.50;90.50;;;;;;5109498;28;20030;-79
2023/09/14 07:23:52;;;;;;;1.50;0.90;;;22.50;90.50;;;;;;5109174;28;20027;-77
2023/09/14 07:26:18;;;;;;;1.65;1.02;;;22.50;90.50;;;;;;5108176;28;20506;-77
2023/09/14 07:28:43;;;;;;;0.90;0.80;;;22.50;90.50;;;;;;5107490;28;20023;-77
2023/09/14 07:31:09;;;;;;;1.90;1.00;;;22.60;90.40;;;;;;5109255;28;20081;-77
2023/09/14 07:33:34;;;;;;;2.45;0.90;;;22.60;90.30;;;;;;5107626;28;20024;-78
2023/09/14 07:36:00;;;;;;;1.70;1.00;;;22.60;90.30;;;;;;5107655;28;20475;-78
2023/09/14 07:38:25;;;;;;;2.30;1.00;;;22.60;90.30;;;;;;5108787;28;20024;-79
2023/09/14 07:40:51;;;;;;;1.60;0.90;;;22.60;90.20;;;;;;5107679;28;20023;-78
2023/09/14 07:43:17;;;;;;;2.17;0.90;;;22.60;90.30;;;;;;5107504;28;20046;-79
2023/09/14 07:45:43;;;;;;;1.52;0.90;;;22.70;90.30;;;;;;5108711;28;20379;-77
2023/09/14 07:48:09;;;;;;;1.42;0.90;;;22.70;90.30;;;;;;5099028;28;20028;-77
2023/09/14 07:50:39;;;;;;;1.48;0.80;;;22.70;90.20;;;;;;5093957;28;20028;-77
2023/09/14 07:53:09;;;;;;;1.42;0.95;;;22.80;90.20;;;;;;5094103;28;20031;-77
2023/09/14 07:55:35;;;;;;;2.78;0.90;;;22.80;90.20;;;;;;5094871;28;20557;-77
2023/09/14 07:58:00;;;;;;;2.00;1.23;;;22.80;90.10;;;;;;5094440;28;20027;-77
2023/09/14 08:00:26;;;;;;;1.60;1.10;;;22.80;90.10;;;;;;5093780;28;20020;-76
2023/09/14 08:02:52;;;;;;;2.28;1.08;;;22.90;90.10;;;;;;5093709;28;20028;-77
2023/09/14 08:05:18;;;;;;;1.90;1.00;;;22.90;90.00;;;;;;5093567;28;20380;-77
2023/09/14 08:07:43;;;;;;;1.67;0.90;;;22.90;89.90;;;;;;5094563;28;20024;-77
2023/09/14 08:10:09;;;;;;;1.65;0.95;;;22.90;89.80;;;;;;5093637;28;20017;-77
2023/09/14 08:12:38;;;;;;;2.65;1.17;;;22.90;89.70;;;;;;5093521;28;20061;-78
2023/09/14 08:15:04;;;;;;;1.88;1.10;;;22.90;89.70;;;;;;5093565;28;20023;-80
2023/09/14 08:17:30;;;;;;;1.98;1.00;;;22.90;89.60;;;;;;5094615;28;20032;-77
2023/09/14 08:19:55;;;;;;;2.20;1.10;;;22.90;89.70;;;;;;5093630;28;20117;-77
2023/09/14 08:22:23;;;;;;;2.15;1.00;;;22.90;89.80;;;;;;5094612;28;20365;-79
2023/09/14 08:24:49;;;;;;;5.13;1.10;;;22.90;89.90;;;;;;5094906;28;20098;-78
2023/09/14 08:27:15;;;;;;;3.25;1.35;;;22.90;89.30;;;;;;5094323;28;20073;-77
2023/09/14 08:29:43;;;;;;;4.18;1.23;;;23.00;88.70;;;;;;5093063;28;20032;-76
2023/09/14 08:32:09;;;;;;;6.35;1.40;;;22.90;87.40;;;;;;5094374;28;20031;-79
2023/09/14 08:34:34;;;;;;;3.78;1.30;;;22.90;87.30;;;;;;5092913;28;20072;-77
2023/09/14 08:37:00;;;;;;;6.65;1.20;;;22.90;87.20;;;;;;5092889;28;20060;-76
2023/09/14 08:39:25;;;;;;;5.97;1.25;;;22.90;87.20;;;;;;5093925;28;20020;-77
2023/09/14 08:41:51;;;;;;;4.20;1.10;;;22.90;87.50;;;;;;5093038;28;20401;-77
2023/09/14 08:44:19;;;;;;;4.72;1.40;;;23.00;87.60;;;;;;5092937;28;20027;-77
2023/09/14 08:46:46;;;;;;;4.97;1.40;;;23.00;87.60;;;;;;5093979;28;20110;-77
2023/09/14 08:49:12;;;;;;;3.60;1.30;;;23.00;87.70;;;;;;5092495;28;20028;-77
2023/09/14 08:51:40;;;;;;;1.98;1.20;;;23.00;87.70;;;;;;5092720;28;20073;-78
2023/09/14 08:54:07;;;;;;;4.28;1.42;;;23.10;87.70;;;;;;5093873;28;20031;-78
2023/09/14 08:56:34;;;;;;;3.85;1.08;;;23.10;87.60;;;;;;5092651;28;20170;-77
2023/09/14 08:59:02;;;;;;;5.55;1.00;;;23.10;87.50;;;;;;5091435;28;20016;-79
2023/09/14 09:01:27;;;;;;;1.98;0.98;;;23.10;87.50;;;;;;5092647;28;20043;-77
2023/09/14 09:03:53;;;;;;;4.47;1.10;;;23.10;87.50;;;;;;5092480;28;20516;-78
2023/09/14 09:06:20;;;;;;;2.50;1.10;;;23.10;87.60;;;;;;5092456;28;20024;-77
2023/09/14 09:08:46;;;;;;;2.95;1.30;;;23.10;87.70;;;;;;5092123;28;20070;-77
2023/09/14 09:11:12;;;;;;;2.97;1.00;;;23.10;87.70;;;;;;5093633;28;20054;-77
2023/09/14 09:13:43;;;;;;;4.20;1.00;;;23.20;87.80;;;;;;5093364;28;20446;-79
2023/09/14 09:16:11;;;;;;;1.95;0.90;;;23.20;87.90;;;;;;5093323;28;20073;-77
2023/09/14 09:19:03;;;;;;;3.75;1.17;;;23.20;87.90;;;;;;5092196;28;20051;-77
2023/09/14 09:21:31;;;;;;;2.63;0.93;;;23.20;87.90;;;;;;5093427;28;20396;-78
2023/09/14 09:23:57;;;;;;;3.03;0.90;;;23.20;87.90;;;;;;5092043;28;20020;-78
2023/09/14 09:26:24;;;;;;;4.43;1.00;;;23.20;88.00;;;;;;5092015;28;20081;-78
2023/09/14 09:28:49;;;;;;;2.63;1.13;;;23.20;87.90;;;;;;5093002;28;20021;-77
2023/09/14 09:31:16;;;;;;;3.75;1.05;;;23.20;87.90;;;;;;5092001;28;20039;-77
2023/09/14 09:33:47;;;;;;;3.42;1.10;;;23.30;88.10;;;;;;5091607;28;20529;-77
2023/09/14 09:36:17;;;;;;;3.75;1.00;;;23.30;88.20;;;;;;5091861;28;20028;-79
2023/09/14 09:38:45;;;;;;;2.40;1.02;;;23.30;88.20;;;;;;5092517;28;20053;-77
2023/09/14 09:41:11;;;;;;;3.03;1.00;;;23.30;88.10;;;;;;5091770;28;20069;-77
2023/09/14 09:43:39;;;;;;;3.28;1.10;;;23.30;88.20;;;;;;5091457;28;20051;-79
2023/09/14 09:46:14;;;;;;;2.28;0.82;;;23.30;88.20;;;;;;5092910;28;20035;-77
2023/09/14 09:48:40;;;;;;;3.53;1.23;;;23.20;88.30;;;;;;5091445;28;20496;-77
2023/09/14 09:51:06;;;;;;;3.90;1.00;;;23.10;88.40;;;;;;5092941;28;20494;-79
2023/09/14 09:53:32;;;;;;;2.55;0.90;;;23.30;88.50;;;;;;5092649;28;20021;-79
2023/09/14 09:55:57;;;;;;;1.60;0.82;;;23.20;88.60;;;;;;5091560;28;20510;-77
2023/09/14 09:58:36;;;;;;;1.95;0.88;;;23.20;88.70;;;;;;5092526;28;20081;-77
2023/09/14 10:01:02;;;;;;;1.60;0.98;;;23.20;88.80;;;;;;5091493;28;20024;-79
2023/09/14 10:03:30;;;;;;;2.53;1.02;;;23.20;88.90;;;;;;5091408;28;20023;-77
2023/09/14 10:05:56;;;;;;;2.50;0.80;;;23.20;88.90;;;;;;5091203;28;20396;-78
2023/09/14 10:08:21;;;;;;;3.60;1.00;;;23.10;88.90;;;;;;5091123;28;20020;-77
2023/09/14 10:10:51;;;;;;;3.28;0.82;;;23.20;89.10;;;;;;5090931;28;20022;-77
2023/09/14 10:13:25;;;;;;;2.08;0.98;;;23.10;89.10;;;;;;5091310;28;20046;-78
2023/09/14 10:15:56;;;;;;;3.90;1.08;;;23.10;89.30;;;;;;5093425;28;20031;-77
2023/09/14 10:18:24;;;;;;;2.85;0.98;;;23.10;89.40;;;;;;5090956;28;20115;-76
2023/09/14 10:20:51;;;;;;;2.20;0.90;;;23.00;89.50;;;;;;5091304;28;20016;-79
2023/09/14 10:23:19;;;;;;;1.85;0.80;;;23.00;89.50;;;;;;5091086;28;20016;-77
2023/09/14 10:25:47;;;;;;;1.83;0.90;;;23.00;89.70;;;;;;5091064;28;20077;-77
2023/09/14 10:28:14;;;;;;;1.95;0.90;;;23.00;89.50;;;;;;5092018;28;20045;-77
2023/09/14 10:30:42;;;;;;;1.90;0.80;;;23.00;89.60;;;;;;5091008;28;20024;-77
2023/09/14 10:33:09;;;;;;;2.10;0.80;;;23.00;89.40;;;;;;5092273;28;20488;-78
2023/09/14 10:35:38;;;;;;;1.83;0.80;;;23.00;89.20;;;;;;5090857;28;20060;-79
2023/09/14 10:38:05;;;;;;;1.83;0.90;;;23.00;89.10;;;;;;5091939;28;20109;-77
2023/09/14 10:40:34;;;;;;;4.40;0.90;;;23.10;89.10;;;;;;5090865;28;20162;-77
2023/09/14 10:43:00;;;;;;;2.40;0.90;;;23.00;89.10;;;;;;5092133;28;20020;-78
2023/09/14 10:45:30;;;;;;;1.60;0.70;;;23.10;89.20;;;;;;5090893;28;20026;-77
2023/09/14 10:47:56;;;;;;;1.38;0.80;;;23.10;89.10;;;;;;5091952;28;20023;-77
2023/09/14 10:50:22;;;;;;;2.33;0.90;;;23.10;89.00;;;;;;5090986;28;20396;-77
2023/09/14 10:52:48;;;;;;;3.70;0.90;;;23.10;89.10;;;;;;5090909;28;20059;-78
2023/09/14 10:55:13;;;;;;;2.65;0.90;;;23.10;89.10;;;;;;5090683;28;20110;-77
2023/09/14 10:57:40;;;;;;;1.70;0.70;;;23.10;89.10;;;;;;5090400;28;20035;-76
2023/09/14 11:00:08;;;;;;;1.58;0.80;;;23.10;89.10;;;;;;5090842;28;20021;-77
2023/09/14 11:02:37;;;;;;;1.42;0.80;;;23.10;89.10;;;;;;5090617;28;20016;-76
2023/09/14 11:05:18;;;;;;;1.67;0.90;;;23.10;89.20;;;;;;5091958;28;20013;-78
2023/09/14 11:07:50;;;;;;;1.40;0.68;;;23.10;89.20;;;;;;5090518;28;20056;-77
2023/09/14 11:10:17;;;;;;;2.30;0.80;;;23.10;89.70;;;;;;5091964;28;20023;-79
2023/09/14 11:12:46;;;;;;;2.78;1.05;;;23.10;89.20;;;;;;5091848;28;20429;-77
2023/09/14 11:15:15;;;;;;;2.28;0.85;;;23.10;89.20;;;;;;5091800;28;20137;-77
2023/09/14 11:17:45;;;;;;;1.77;0.80;;;23.10;89.20;;;;;;5090302;28;20027;-77
2023/09/14 11:20:20;;;;;;;2.05;0.80;;;23.10;89.70;;;;;;5090559;28;20656;-79
2023/09/14 11:22:50;;;;;;;1.50;0.70;;;23.20;89.20;;;;;;5091506;28;20027;-77
2023/09/14 11:25:35;;;;;;;1.88;0.70;;;23.20;89.10;;;;;;5094361;28;20024;-77
2023/09/14 11:28:01;;;;;;;2.05;0.82;;;23.20;89.00;;;;;;5095596;28;20020;-77
2023/09/14 11:30:30;;;;;;;1.27;0.70;;;23.20;88.90;;;;;;5094200;28;20078;-78
2023/09/14 11:32:59;;;;;;;1.70;0.73;;;23.20;88.90;;;;;;5094477;28;20027;-78
2023/09/14 11:35:38;;;;;;;1.55;0.80;;;23.20;88.80;;;;;;5093862;28;20408;-78
2023/09/14 11:38:14;;;;;;;1.08;0.60;;;23.20;88.80;;;;;;5093901;28;20031;-77
2023/09/14 11:40:40;;;;;;;1.60;0.90;;;23.20;88.90;;;;;;5094172;28;20016;-78
2023/09/14 11:43:21;;;;;;;1.40;0.88;;;23.20;89.00;;;;;;5094233;28;20507;-77
2023/09/14 11:45:47;;;;;;;;;;;23.20;89.10;;;;;;5094414;28;20089;-77
2023/09/14 11:48:14;;;;;;;2.45;0.70;;;23.10;89.10;;;;;;5093920;28;20010;-79
2023/09/14 11:50:46;;;;;;;1.77;0.80;;;23.10;89.20;;;;;;5093788;28;20024;-79
2023/09/14 11:53:17;;;;;;;1.60;0.70;;;23.10;89.20;;;;;;5093799;28;20024;-77
2023/09/14 11:55:47;;;;;;;2.00;0.90;;;23.10;89.20;;;;;;5093853;28;20024;-79
2023/09/14 11:58:13;;;;;;;1.38;0.80;;;23.10;89.20;;;;;;5094807;28;20047;-78
2023/09/14 12:00:41;;;;;;;1.30;0.70;;;23.10;89.30;;;;;;5094898;28;20380;-77
2023/09/14 12:03:08;;;;;;;1.15;0.70;;;23.10;89.30;;;;;;5093689;28;20024;-76
2023/09/14 12:05:34;;;;;;;1.42;0.80;;;23.10;89.30;;;;;;5093411;28;20017;-77
2023/09/14 12:08:10;;;;;;;1.73;0.80;;;23.00;89.30;;;;;;5094883;28;20031;-77
2023/09/14 12:10:36;;;;;;;1.17;0.68;;;23.10;89.30;;;;;;5093722;28;20020;-77
2023/09/14 12:13:14;;;;;;;1.70;0.80;;;23.10;89.50;;;;;;5094629;28;20024;-77
2023/09/14 12:15:42;;;;;;;2.17;0.70;;;23.10;89.40;;;;;;5093157;28;20024;-79
2023/09/14 12:18:10;;;;;;;1.67;0.82;;;23.10;89.40;;;;;;5093429;28;20069;-78
2023/09/14 12:20:37;;;;;;;0.80;0.60;;;23.10;89.40;;;;;;5094605;28;20016;-76
2023/09/14 12:23:03;;;;;;;1.73;0.75;;;23.10;89.30;;;;;;5094522;28;20482;-77
2023/09/14 12:25:29;;;;;;;1.30;0.68;;;23.00;89.30;;;;;;5094267;28;20012;-79
2023/09/14 12:27:55;;;;;;;3.38;0.90;;;23.00;89.40;;;;;;5093035;28;20027;-77
2023/09/14 12:30:21;;;;;;;2.30;0.90;;;23.00;89.50;;;;;;5094491;28;20020;-77
2023/09/14 12:32:47;;;;;;;0.88;0.70;;;23.00;89.70;;;;;;5092908;28;20391;-79
2023/09/14 12:35:15;;;;;;;1.42;0.75;;;22.90;89.70;;;;;;5092872;28;20115;-76
2023/09/14 12:37:41;;;;;;;1.17;0.82;;;22.90;89.90;;;;;;5093985;28;20028;-77
2023/09/14 12:40:10;;;;;;;1.55;0.70;;;22.90;89.90;;;;;;5094300;28;20095;-77
2023/09/14 12:42:35;;;;;;;2.03;0.75;;;22.90;90.00;;;;;;5092883;28;20507;-77
2023/09/14 12:45:04;;;;;;;1.35;0.80;;;22.90;90.00;;;;;;5092840;28;20031;-77
2023/09/14 12:47:31;;;;;;;1.45;0.70;;;22.90;90.00;;;;;;5092610;28;20024;-77